sensor_id;sensor_type;location;lat;lon;timestamp;pressure;altitude;pressure_sealevel;temperature;humidity
10587;BME280;5341;47.606;7.576;2023-08-24T00:02:07;98847.50;;;32.06;37.07
10587;BME280;5341;47.606;7.576;2023-08-24T00:04:36;98847.81;;;32.04;37.42
10587;BME280;5341;47.606;7.576;2023-08-24T00:07:04;98841.31;;;32.00;37.09
10587;BME280;5341;47.606;7.576;2023-08-24T00:09:31;98834.16;;;31.99;37.35
10587;BME280;5341;47.606;7.576;2023-08-24T00:11:59;98828.09;;;31.97;37.19
10587;BME280;5341;47.606;7.576;2023-08-24T00:14:26;98839.81;;;31.94;37.70
10587;BME280;5341;47.606;7.576;2023-08-24T00:16:55;98840.13;;;31.93;37.61
10587;BME280;5341;47.606;7.576;2023-08-24T00:19:23;98841.59;;;31.90;37.78
10587;BME280;5341;47.606;7.576;2023-08-24T00:21:50;98833.94;;;31.87;37.37
10587;BME280;5341;47.606;7.576;2023-08-24T00:24:17;98844.19;;;31.87;37.69
10587;BME280;5341;47.606;7.576;2023-08-24T00:26:44;98834.91;;;31.83;37.57
10587;BME280;5341;47.606;7.576;2023-08-24T00:29:11;98831.63;;;31.81;37.66
10587;BME280;5341;47.606;7.576;2023-08-24T00:31:39;98831.16;;;31.78;37.77
10587;BME280;5341;47.606;7.576;2023-08-24T00:34:08;98825.13;;;31.76;37.82
10587;BME280;5341;47.606;7.576;2023-08-24T00:36:35;98821.03;;;31.74;38.18
10587;BME280;5341;47.606;7.576;2023-08-24T00:39:03;98828.81;;;31.72;38.20
10587;BME280;5341;47.606;7.576;2023-08-24T00:41:30;98817.56;;;31.68;37.91
10587;BME280;5341;47.606;7.576;2023-08-24T00:43:58;98816.75;;;31.68;37.88
10587;BME280;5341;47.606;7.576;2023-08-24T00:46:26;98812.38;;;31.67;38.01
10587;BME280;5341;47.606;7.576;2023-08-24T00:48:54;98812.69;;;31.65;38.18
10587;BME280;5341;47.606;7.576;2023-08-24T00:51:25;98809.44;;;31.63;38.01
10587;BME280;5341;47.606;7.576;2023-08-24T00:53:53;98817.22;;;31.61;38.43
10587;BME280;5341;47.606;7.576;2023-08-24T00:56:24;98811.19;;;31.59;38.04
10587;BME280;5341;47.606;7.576;2023-08-24T00:58:52;98814.28;;;31.58;38.10
10587;BME280;5341;47.606;7.576;2023-08-24T01:01:21;98809.06;;;31.56;38.01
10587;BME280;5341;47.606;7.576;2023-08-24T01:03:50;98808.59;;;31.54;38.11
10587;BME280;5341;47.606;7.576;2023-08-24T01:06:18;98797.03;;;31.52;38.15
10587;BME280;5341;47.606;7.576;2023-08-24T01:08:46;98778.28;;;31.49;38.40
10587;BME280;5341;47.606;7.576;2023-08-24T01:11:19;98780.25;;;31.48;38.36
10587;BME280;5341;47.606;7.576;2023-08-24T01:13:54;98790.00;;;31.46;38.25
10587;BME280;5341;47.606;7.576;2023-08-24T01:16:29;98778.44;;;31.44;38.19
10587;BME280;5341;47.606;7.576;2023-08-24T01:18:57;98784.31;;;31.42;38.56
10587;BME280;5341;47.606;7.576;2023-08-24T01:21:26;98772.75;;;31.40;38.66
10587;BME280;5341;47.606;7.576;2023-08-24T01:24:04;98771.13;;;31.39;38.20
10587;BME280;5341;47.606;7.576;2023-08-24T01:26:38;98764.25;;;31.37;38.36
10587;BME280;5341;47.606;7.576;2023-08-24T01:29:07;98770.13;;;31.35;38.59
10587;BME280;5341;47.606;7.576;2023-08-24T01:31:35;98777.91;;;31.33;38.48
10587;BME280;5341;47.606;7.576;2023-08-24T01:34:04;98767.50;;;31.30;38.65
10587;BME280;5341;47.606;7.576;2023-08-24T01:36:31;98772.53;;;31.28;38.69
10587;BME280;5341;47.606;7.576;2023-08-24T01:39:07;98765.72;;;31.26;38.57
10587;BME280;5341;47.606;7.576;2023-08-24T01:41:42;98763.56;;;31.23;38.25
10587;BME280;5341;47.606;7.576;2023-08-24T01:44:13;98763.38;;;31.19;38.65
10587;BME280;5341;47.606;7.576;2023-08-24T01:46:42;98750.69;;;31.18;38.48
10587;BME280;5341;47.606;7.576;2023-08-24T01:49:12;98741.91;;;31.16;38.74
10587;BME280;5341;47.606;7.576;2023-08-24T01:51:41;98737.50;;;31.15;38.42
10587;BME280;5341;47.606;7.576;2023-08-24T01:54:09;98740.88;;;31.12;38.42
10587;BME280;5341;47.606;7.576;2023-08-24T01:56:37;98737.63;;;31.10;38.30
10587;BME280;5341;47.606;7.576;2023-08-24T01:59:06;98738.75;;;31.09;38.72
10587;BME280;5341;47.606;7.576;2023-08-24T02:01:34;98741.34;;;31.05;38.90
10587;BME280;5341;47.606;7.576;2023-08-24T02:04:02;98740.53;;;31.05;38.69
10587;BME280;5341;47.606;7.576;2023-08-24T02:06:29;98735.66;;;31.02;38.74
10587;BME280;5341;47.606;7.576;2023-08-24T02:08:57;98737.09;;;30.99;38.89
10587;BME280;5341;47.606;7.576;2023-08-24T02:11:24;98740.47;;;30.96;39.13
10587;BME280;5341;47.606;7.576;2023-08-24T02:13:52;98745.50;;;30.94;39.00
10587;BME280;5341;47.606;7.576;2023-08-24T02:16:20;98747.28;;;30.90;39.26
10587;BME280;5341;47.606;7.576;2023-08-24T02:18:48;98736.03;;;30.86;39.25
10587;BME280;5341;47.606;7.576;2023-08-24T02:21:15;98732.78;;;30.84;39.18
10587;BME280;5341;47.606;7.576;2023-08-24T02:23:43;98734.22;;;30.82;39.20
10587;BME280;5341;47.606;7.576;2023-08-24T02:26:10;98743.66;;;30.81;39.49
10587;BME280;5341;47.606;7.576;2023-08-24T02:28:38;98740.72;;;30.77;39.30
10587;BME280;5341;47.606;7.576;2023-08-24T02:31:09;98740.19;;;30.75;39.38
10587;BME280;5341;47.606;7.576;2023-08-24T02:33:38;98738.06;;;30.72;39.74
10587;BME280;5341;47.606;7.576;2023-08-24T02:36:06;98734.81;;;30.70;39.87
10587;BME280;5341;47.606;7.576;2023-08-24T02:38:33;98726.84;;;30.69;39.72
10587;BME280;5341;47.606;7.576;2023-08-24T02:41:02;98725.22;;;30.68;39.84
10587;BME280;5341;47.606;7.576;2023-08-24T02:43:30;98726.34;;;30.67;39.92
10587;BME280;5341;47.606;7.576;2023-08-24T02:46:00;98720.31;;;30.65;39.78
10587;BME280;5341;47.606;7.576;2023-08-24T02:48:29;98721.44;;;30.63;39.90
10587;BME280;5341;47.606;7.576;2023-08-24T02:50:58;98712.34;;;30.63;39.75
10587;BME280;5341;47.606;7.576;2023-08-24T02:53:26;98711.81;;;30.61;39.67
10587;BME280;5341;47.606;7.576;2023-08-24T02:55:54;98707.44;;;30.60;39.64
10587;BME280;5341;47.606;7.576;2023-08-24T02:58:22;98715.72;;;30.60;39.94
10587;BME280;5341;47.606;7.576;2023-08-24T03:00:50;98710.50;;;30.58;39.88
10587;BME280;5341;47.606;7.576;2023-08-24T03:03:18;98711.97;;;30.56;39.80
10587;BME280;5341;47.606;7.576;2023-08-24T03:05:58;98699.28;;;30.55;39.94
10587;BME280;5341;47.606;7.576;2023-08-24T03:08:28;98696.84;;;30.53;39.93
10587;BME280;5341;47.606;7.576;2023-08-24T03:10:57;98696.00;;;30.53;39.92
10587;BME280;5341;47.606;7.576;2023-08-24T03:13:25;98697.47;;;30.50;39.94
10587;BME280;5341;47.606;7.576;2023-08-24T03:15:54;98683.97;;;30.49;40.17
10587;BME280;5341;47.606;7.576;2023-08-24T03:18:26;98691.44;;;30.48;40.23
10587;BME280;5341;47.606;7.576;2023-08-24T03:20:55;98687.06;;;30.47;40.17
10587;BME280;5341;47.606;7.576;2023-08-24T03:23:24;98690.13;;;30.46;39.85
10587;BME280;5341;47.606;7.576;2023-08-24T03:25:55;98687.69;;;30.44;39.94
10587;BME280;5341;47.606;7.576;2023-08-24T03:28:23;98688.00;;;30.43;39.99
10587;BME280;5341;47.606;7.576;2023-08-24T03:30:52;98694.94;;;30.40;40.29
10587;BME280;5341;47.606;7.576;2023-08-24T03:33:22;98689.75;;;30.39;40.39
10587;BME280;5341;47.606;7.576;2023-08-24T03:35:50;98690.06;;;30.37;40.08
10587;BME280;5341;47.606;7.576;2023-08-24T03:38:19;98689.25;;;30.37;40.23
10587;BME280;5341;47.606;7.576;2023-08-24T03:40:48;98695.91;;;30.36;40.04
10587;BME280;5341;47.606;7.576;2023-08-24T03:43:16;98692.66;;;30.33;40.15
10587;BME280;5341;47.606;7.576;2023-08-24T03:45:43;98697.34;;;30.33;40.34
10587;BME280;5341;47.606;7.576;2023-08-24T03:48:11;98697.97;;;30.30;40.10
10587;BME280;5341;47.606;7.576;2023-08-24T03:50:38;98698.28;;;30.28;40.26
10587;BME280;5341;47.606;7.576;2023-08-24T03:53:06;98699.41;;;30.27;40.10
10587;BME280;5341;47.606;7.576;2023-08-24T03:55:34;98693.38;;;30.25;40.40
10587;BME280;5341;47.606;7.576;2023-08-24T03:58:03;98694.84;;;30.23;40.48
10587;BME280;5341;47.606;7.576;2023-08-24T04:00:31;98697.91;;;30.21;40.29
10587;BME280;5341;47.606;7.576;2023-08-24T04:03:04;98691.91;;;30.19;40.45
10587;BME280;5341;47.606;7.576;2023-08-24T04:05:32;98692.50;;;30.16;40.54
10587;BME280;5341;47.606;7.576;2023-08-24T04:07:59;98698.34;;;30.15;40.31
10587;BME280;5341;47.606;7.576;2023-08-24T04:10:29;98701.09;;;30.15;40.35
10587;BME280;5341;47.606;7.576;2023-08-24T04:12:58;98709.69;;;30.13;40.34
10587;BME280;5341;47.606;7.576;2023-08-24T04:15:28;98703.66;;;30.11;40.37
10587;BME280;5341;47.606;7.576;2023-08-24T04:17:56;98697.66;;;30.09;40.45
10587;BME280;5341;47.606;7.576;2023-08-24T04:20:25;98696.03;;;30.08;40.43
10587;BME280;5341;47.606;7.576;2023-08-24T04:22:54;98689.69;;;30.08;40.35
10587;BME280;5341;47.606;7.576;2023-08-24T04:25:22;98678.97;;;30.06;40.33
10587;BME280;5341;47.606;7.576;2023-08-24T04:27:50;98688.34;;;30.05;40.53
10587;BME280;5341;47.606;7.576;2023-08-24T04:30:18;98688.34;;;30.05;40.42
10587;BME280;5341;47.606;7.576;2023-08-24T04:32:47;98682.31;;;30.03;40.52
10587;BME280;5341;47.606;7.576;2023-08-24T04:35:14;98686.19;;;30.02;40.47
10587;BME280;5341;47.606;7.576;2023-08-24T04:37:42;98695.59;;;30.01;40.49
10587;BME280;5341;47.606;7.576;2023-08-24T04:40:10;98693.47;;;29.98;40.45
10587;BME280;5341;47.606;7.576;2023-08-24T04:42:38;98695.72;;;29.96;40.45
10587;BME280;5341;47.606;7.576;2023-08-24T04:45:06;98696.84;;;29.95;40.48
10587;BME280;5341;47.606;7.576;2023-08-24T04:47:35;98698.25;;;29.92;40.49
10587;BME280;5341;47.606;7.576;2023-08-24T04:50:05;98701.34;;;29.91;40.38
10587;BME280;5341;47.606;7.576;2023-08-24T04:52:33;98692.56;;;29.89;40.48
10587;BME280;5341;47.606;7.576;2023-08-24T04:55:00;98694.81;;;29.87;40.45
10587;BME280;5341;47.606;7.576;2023-08-24T04:57:29;98694.31;;;29.85;40.61
10587;BME280;5341;47.606;7.576;2023-08-24T04:59:57;98704.53;;;29.84;40.66
10587;BME280;5341;47.606;7.576;2023-08-24T05:02:24;98702.09;;;29.83;40.62
10587;BME280;5341;47.606;7.576;2023-08-24T05:04:52;98703.22;;;29.82;40.51
10587;BME280;5341;47.606;7.576;2023-08-24T05:07:21;98707.09;;;29.81;40.68
10587;BME280;5341;47.606;7.576;2023-08-24T05:09:48;98700.75;;;29.80;40.85
10587;BME280;5341;47.606;7.576;2023-08-24T05:12:16;98698.31;;;29.79;40.73
10587;BME280;5341;47.606;7.576;2023-08-24T05:14:43;98706.56;;;29.79;40.66
10587;BME280;5341;47.606;7.576;2023-08-24T05:17:11;98708.53;;;29.78;40.86
10587;BME280;5341;47.606;7.576;2023-08-24T05:19:39;98704.13;;;29.77;40.72
10587;BME280;5341;47.606;7.576;2023-08-24T05:22:10;98716.78;;;29.78;40.80
10587;BME280;5341;47.606;7.576;2023-08-24T05:24:39;98714.84;;;29.79;40.75
10587;BME280;5341;47.606;7.576;2023-08-24T05:27:06;98707.69;;;29.77;40.70
10587;BME280;5341;47.606;7.576;2023-08-24T05:29:34;98711.28;;;29.78;40.79
10587;BME280;5341;47.606;7.576;2023-08-24T05:32:02;98712.09;;;29.79;40.82
10587;BME280;5341;47.606;7.576;2023-08-24T05:34:30;98710.16;;;29.79;40.88
10587;BME280;5341;47.606;7.576;2023-08-24T05:36:58;98710.97;;;29.80;40.80
10587;BME280;5341;47.606;7.576;2023-08-24T05:39:26;98704.63;;;29.79;40.90
10587;BME280;5341;47.606;7.576;2023-08-24T05:41:55;98710.16;;;29.79;40.90
10587;BME280;5341;47.606;7.576;2023-08-24T05:44:23;98702.69;;;29.80;40.83
10587;BME280;5341;47.606;7.576;2023-08-24T05:46:51;98716.47;;;29.80;40.80
10587;BME280;5341;47.606;7.576;2023-08-24T05:49:22;98722.00;;;29.80;40.86
10587;BME280;5341;47.606;7.576;2023-08-24T05:51:51;98718.41;;;29.79;40.85
10587;BME280;5341;47.606;7.576;2023-08-24T05:54:19;98727.50;;;29.80;41.11
10587;BME280;5341;47.606;7.576;2023-08-24T05:56:46;98728.31;;;29.80;41.18
10587;BME280;5341;47.606;7.576;2023-08-24T05:59:15;98731.91;;;29.81;41.01
10587;BME280;5341;47.606;7.576;2023-08-24T06:01:43;98731.91;;;29.81;41.06
10587;BME280;5341;47.606;7.576;2023-08-24T06:04:10;98729.97;;;29.81;41.15
10587;BME280;5341;47.606;7.576;2023-08-24T06:06:38;98724.47;;;29.81;41.01
10587;BME280;5341;47.606;7.576;2023-08-24T06:09:05;98722.53;;;29.82;41.11
10587;BME280;5341;47.606;7.576;2023-08-24T06:11:33;98722.22;;;29.83;40.95
10587;BME280;5341;47.606;7.576;2023-08-24T06:14:00;98714.75;;;29.84;41.22
10587;BME280;5341;47.606;7.576;2023-08-24T06:16:29;98712.50;;;29.86;41.17
10587;BME280;5341;47.606;7.576;2023-08-24T06:18:57;98717.69;;;29.87;41.20
10587;BME280;5341;47.606;7.576;2023-08-24T06:21:24;98719.31;;;29.88;41.30
10587;BME280;5341;47.606;7.576;2023-08-24T06:23:52;98719.81;;;29.90;41.21
10587;BME280;5341;47.606;7.576;2023-08-24T06:26:19;98717.88;;;29.91;41.23
10587;BME280;5341;47.606;7.576;2023-08-24T06:28:46;98725.03;;;29.92;41.23
10587;BME280;5341;47.606;7.576;2023-08-24T06:31:15;98710.16;;;29.93;41.31
10587;BME280;5341;47.606;7.576;2023-08-24T06:33:45;98713.09;;;29.96;41.30
10587;BME280;5341;47.606;7.576;2023-08-24T06:36:13;98710.31;;;29.96;41.30
10587;BME280;5341;47.606;7.576;2023-08-24T06:38:41;98704.19;;;29.99;41.38
10587;BME280;5341;47.606;7.576;2023-08-24T06:41:08;98699.97;;;30.02;41.40
10587;BME280;5341;47.606;7.576;2023-08-24T06:43:38;98709.06;;;30.02;41.36
10587;BME280;5341;47.606;7.576;2023-08-24T06:46:06;98704.91;;;30.05;41.07
10587;BME280;5341;47.606;7.576;2023-08-24T06:48:34;98706.56;;;30.06;41.43
10587;BME280;5341;47.606;7.576;2023-08-24T06:51:04;98707.88;;;30.09;41.29
10587;BME280;5341;47.606;7.576;2023-08-24T06:53:32;98702.03;;;30.10;41.39
10587;BME280;5341;47.606;7.576;2023-08-24T06:55:59;98698.66;;;30.13;41.52
10587;BME280;5341;47.606;7.576;2023-08-24T06:58:27;98690.88;;;30.15;41.55
10587;BME280;5341;47.606;7.576;2023-08-24T07:00:54;98691.69;;;30.16;41.67
10587;BME280;5341;47.606;7.576;2023-08-24T07:03:23;98691.41;;;30.17;41.52
10587;BME280;5341;47.606;7.576;2023-08-24T07:05:51;98689.94;;;30.20;41.69
10587;BME280;5341;47.606;7.576;2023-08-24T07:08:20;98690.13;;;30.23;41.53
10587;BME280;5341;47.606;7.576;2023-08-24T07:10:48;98696.16;;;30.25;41.63
10587;BME280;5341;47.606;7.576;2023-08-24T07:13:16;98690.53;;;30.30;41.42
10587;BME280;5341;47.606;7.576;2023-08-24T07:15:44;98693.47;;;30.34;41.63
10587;BME280;5341;47.606;7.576;2023-08-24T07:18:11;98688.13;;;30.38;41.73
10587;BME280;5341;47.606;7.576;2023-08-24T07:20:39;98689.63;;;30.44;41.46
10587;BME280;5341;47.606;7.576;2023-08-24T07:23:06;98680.41;;;30.48;41.69
10587;BME280;5341;47.606;7.576;2023-08-24T07:25:36;98679.16;;;30.54;41.49
10587;BME280;5341;47.606;7.576;2023-08-24T07:28:04;98673.97;;;30.61;41.28
10587;BME280;5341;47.606;7.576;2023-08-24T07:30:32;98677.47;;;30.67;41.26
10587;BME280;5341;47.606;7.576;2023-08-24T07:33:00;98677.81;;;30.74;41.42
10587;BME280;5341;47.606;7.576;2023-08-24T07:35:28;98673.81;;;30.80;41.48
10587;BME280;5341;47.606;7.576;2023-08-24T07:37:56;98674.47;;;30.86;41.17
10587;BME280;5341;47.606;7.576;2023-08-24T07:40:24;98672.88;;;30.94;41.54
10587;BME280;5341;47.606;7.576;2023-08-24T07:42:54;98675.50;;;30.99;41.51
10587;BME280;5341;47.606;7.576;2023-08-24T07:45:22;98684.66;;;31.08;41.29
10587;BME280;5341;47.606;7.576;2023-08-24T07:47:50;98673.16;;;31.14;41.21
10587;BME280;5341;47.606;7.576;2023-08-24T07:50:18;98673.03;;;31.19;41.33
10587;BME280;5341;47.606;7.576;2023-08-24T07:52:45;98678.91;;;31.27;41.11
10587;BME280;5341;47.606;7.576;2023-08-24T07:55:13;98684.28;;;31.32;41.09
10587;BME280;5341;47.606;7.576;2023-08-24T07:57:42;98683.81;;;31.38;41.17
10587;BME280;5341;47.606;7.576;2023-08-24T08:00:13;98688.03;;;31.44;41.41
10587;BME280;5341;47.606;7.576;2023-08-24T08:02:41;98693.13;;;31.51;41.57
10587;BME280;5341;47.606;7.576;2023-08-24T08:05:08;98690.19;;;31.56;41.22
10587;BME280;5341;47.606;7.576;2023-08-24T08:07:38;98685.63;;;31.60;40.97
10587;BME280;5341;47.606;7.576;2023-08-24T08:10:06;98694.94;;;31.64;41.38
10587;BME280;5341;47.606;7.576;2023-08-24T08:12:34;98697.03;;;31.67;41.02
10587;BME280;5341;47.606;7.576;2023-08-24T08:15:02;98690.84;;;31.70;41.20
10587;BME280;5341;47.606;7.576;2023-08-24T08:17:32;98687.44;;;31.73;41.05
10587;BME280;5341;47.606;7.576;2023-08-24T08:19:59;98684.91;;;31.77;41.12
10587;BME280;5341;47.606;7.576;2023-08-24T08:22:28;98671.72;;;31.83;41.52
10587;BME280;5341;47.606;7.576;2023-08-24T08:24:56;98673.53;;;31.87;41.26
10587;BME280;5341;47.606;7.576;2023-08-24T08:27:23;98677.25;;;31.91;41.42
10587;BME280;5341;47.606;7.576;2023-08-24T08:29:51;98673.50;;;31.96;41.16
10587;BME280;5341;47.606;7.576;2023-08-24T08:32:19;98682.16;;;32.03;41.71
10587;BME280;5341;47.606;7.576;2023-08-24T08:34:48;98674.00;;;32.06;41.47
10587;BME280;5341;47.606;7.576;2023-08-24T08:37:15;98677.91;;;32.14;41.91
10587;BME280;5341;47.606;7.576;2023-08-24T08:39:42;98680.16;;;32.21;41.47
10587;BME280;5341;47.606;7.576;2023-08-24T08:42:14;98672.19;;;32.28;41.54
10587;BME280;5341;47.606;7.576;2023-08-24T08:44:42;98668.13;;;32.34;41.51
10587;BME280;5341;47.606;7.576;2023-08-24T08:47:11;98674.81;;;32.42;41.53
10587;BME280;5341;47.606;7.576;2023-08-24T08:49:39;98677.25;;;32.52;41.46
10587;BME280;5341;47.606;7.576;2023-08-24T08:52:08;98675.28;;;32.61;41.43
10587;BME280;5341;47.606;7.576;2023-08-24T08:54:37;98672.47;;;32.70;41.00
10587;BME280;5341;47.606;7.576;2023-08-24T08:57:05;98671.28;;;32.79;41.08
10587;BME280;5341;47.606;7.576;2023-08-24T08:59:34;98668.19;;;32.89;41.01
10587;BME280;5341;47.606;7.576;2023-08-24T09:02:03;98669.81;;;32.99;41.04
10587;BME280;5341;47.606;7.576;2023-08-24T09:04:33;98670.06;;;33.06;40.55
10587;BME280;5341;47.606;7.576;2023-08-24T09:07:00;98674.31;;;33.12;40.64
10587;BME280;5341;47.606;7.576;2023-08-24T09:09:35;98664.50;;;33.15;40.29
10587;BME280;5341;47.606;7.576;2023-08-24T09:12:04;98665.94;;;33.21;40.50
10587;BME280;5341;47.606;7.576;2023-08-24T09:14:33;98665.88;;;33.30;40.31
10587;BME280;5341;47.606;7.576;2023-08-24T09:17:00;98660.66;;;33.37;40.19
10587;BME280;5341;47.606;7.576;2023-08-24T09:19:29;98665.38;;;33.45;39.88
10587;BME280;5341;47.606;7.576;2023-08-24T09:21:58;98661.69;;;33.53;39.72
10587;BME280;5341;47.606;7.576;2023-08-24T09:24:32;98658.53;;;33.63;39.47
10587;BME280;5341;47.606;7.576;2023-08-24T09:27:13;98659.31;;;33.72;39.22
10587;BME280;5341;47.606;7.576;2023-08-24T09:29:41;98660.38;;;33.80;39.26
10587;BME280;5341;47.606;7.576;2023-08-24T09:32:09;98652.97;;;33.93;39.09
10587;BME280;5341;47.606;7.576;2023-08-24T09:34:37;98658.91;;;34.03;39.17
10587;BME280;5341;47.606;7.576;2023-08-24T09:37:05;98643.81;;;34.13;39.38
10587;BME280;5341;47.606;7.576;2023-08-24T09:39:39;98632.41;;;34.27;39.23
10587;BME280;5341;47.606;7.576;2023-08-24T09:42:08;98633.94;;;34.36;39.41
10587;BME280;5341;47.606;7.576;2023-08-24T09:44:35;98629.50;;;34.44;39.24
10587;BME280;5341;47.606;7.576;2023-08-24T09:47:09;98618.75;;;34.55;39.21
10587;BME280;5341;47.606;7.576;2023-08-24T09:49:37;98616.56;;;34.60;39.01
10587;BME280;5341;47.606;7.576;2023-08-24T09:52:07;98607.31;;;34.69;39.26
10587;BME280;5341;47.606;7.576;2023-08-24T09:54:37;98607.53;;;34.76;38.55
10587;BME280;5341;47.606;7.576;2023-08-24T09:57:07;98595.66;;;34.87;38.18
10587;BME280;5341;47.606;7.576;2023-08-24T09:59:39;98598.09;;;35.01;37.58
10587;BME280;5341;47.606;7.576;2023-08-24T10:02:15;98597.75;;;35.15;37.08
10587;BME280;5341;47.606;7.576;2023-08-24T10:04:44;98600.16;;;35.29;37.51
10587;BME280;5341;47.606;7.576;2023-08-24T10:07:15;98592.03;;;35.36;37.22
10587;BME280;5341;47.606;7.576;2023-08-24T10:09:52;98584.75;;;35.43;37.53
10587;BME280;5341;47.606;7.576;2023-08-24T10:12:27;98588.22;;;35.52;37.82
10587;BME280;5341;47.606;7.576;2023-08-24T10:15:00;98585.19;;;35.58;37.75
10587;BME280;5341;47.606;7.576;2023-08-24T10:17:29;98575.44;;;35.64;38.04
10587;BME280;5341;47.606;7.576;2023-08-24T10:20:10;98570.06;;;35.71;38.08
10587;BME280;5341;47.606;7.576;2023-08-24T10:22:38;98572.00;;;35.82;36.98
10587;BME280;5341;47.606;7.576;2023-08-24T10:25:08;98568.97;;;36.00;36.97
10587;BME280;5341;47.606;7.576;2023-08-24T10:27:35;98564.22;;;36.16;36.74
10587;BME280;5341;47.606;7.576;2023-08-24T10:30:10;98565.84;;;36.33;36.07
10587;BME280;5341;47.606;7.576;2023-08-24T10:32:40;98561.59;;;36.51;35.52
10587;BME280;5341;47.606;7.576;2023-08-24T10:35:09;98549.56;;;36.63;35.63
10587;BME280;5341;47.606;7.576;2023-08-24T10:37:37;98550.72;;;36.78;35.83
10587;BME280;5341;47.606;7.576;2023-08-24T10:40:05;98545.88;;;36.90;35.64
10587;BME280;5341;47.606;7.576;2023-08-24T10:42:43;98551.69;;;37.01;34.49
10587;BME280;5341;47.606;7.576;2023-08-24T10:45:13;98549.78;;;37.05;35.75
10587;BME280;5341;47.606;7.576;2023-08-24T10:47:44;98549.09;;;37.08;35.61
10587;BME280;5341;47.606;7.576;2023-08-24T10:50:14;98545.63;;;37.15;35.19
10587;BME280;5341;47.606;7.576;2023-08-24T10:52:43;98539.03;;;37.39;34.24
10587;BME280;5341;47.606;7.576;2023-08-24T10:55:22;98534.28;;;37.59;34.08
10587;BME280;5341;47.606;7.576;2023-08-24T10:57:57;98538.91;;;37.70;32.90
10587;BME280;5341;47.606;7.576;2023-08-24T11:00:26;98533.84;;;37.76;33.94
10587;BME280;5341;47.606;7.576;2023-08-24T11:02:55;98537.34;;;37.73;34.20
10587;BME280;5341;47.606;7.576;2023-08-24T11:05:27;98529.78;;;37.73;34.23
10587;BME280;5341;47.606;7.576;2023-08-24T11:07:58;98521.88;;;37.75;34.39
10587;BME280;5341;47.606;7.576;2023-08-24T11:10:30;98524.66;;;37.75;34.32
10587;BME280;5341;47.606;7.576;2023-08-24T11:13:11;98521.72;;;37.88;33.24
10587;BME280;5341;47.606;7.576;2023-08-24T11:15:39;98517.41;;;38.13;32.09
10587;BME280;5341;47.606;7.576;2023-08-24T11:18:14;98514.16;;;38.30;31.14
10587;BME280;5341;47.606;7.576;2023-08-24T11:20:48;98505.91;;;38.37;31.19
10587;BME280;5341;47.606;7.576;2023-08-24T11:23:16;98511.72;;;38.52;31.22
10587;BME280;5341;47.606;7.576;2023-08-24T11:25:44;98509.09;;;38.62;31.31
10587;BME280;5341;47.606;7.576;2023-08-24T11:28:16;98505.72;;;38.73;29.89
10587;BME280;5341;47.606;7.576;2023-08-24T11:30:44;98503.50;;;38.85;29.73
10587;BME280;5341;47.606;7.576;2023-08-24T11:33:12;98492.81;;;38.91;30.47
10587;BME280;5341;47.606;7.576;2023-08-24T11:35:42;98496.88;;;38.97;30.73
10587;BME280;5341;47.606;7.576;2023-08-24T11:38:12;98491.63;;;38.92;31.52
10587;BME280;5341;47.606;7.576;2023-08-24T11:40:40;98496.47;;;38.95;30.13
10587;BME280;5341;47.606;7.576;2023-08-24T11:43:08;98493.06;;;39.09;30.19
10587;BME280;5341;47.606;7.576;2023-08-24T11:45:37;98490.03;;;39.17;30.24
10587;BME280;5341;47.606;7.576;2023-08-24T11:48:06;98486.19;;;39.29;30.27
10587;BME280;5341;47.606;7.576;2023-08-24T11:50:37;98484.59;;;39.32;29.86
10587;BME280;5341;47.606;7.576;2023-08-24T11:53:07;98482.78;;;39.46;29.92
10587;BME280;5341;47.606;7.576;2023-08-24T11:55:39;98479.66;;;39.51;30.19
10587;BME280;5341;47.606;7.576;2023-08-24T11:58:14;98475.59;;;39.49;30.30
10587;BME280;5341;47.606;7.576;2023-08-24T12:00:42;98477.59;;;39.48;30.66
10587;BME280;5341;47.606;7.576;2023-08-24T12:03:10;98470.97;;;39.60;30.20
10587;BME280;5341;47.606;7.576;2023-08-24T12:05:37;98458.72;;;39.72;29.47
10587;BME280;5341;47.606;7.576;2023-08-24T12:08:05;98457.31;;;39.92;28.99
10587;BME280;5341;47.606;7.576;2023-08-24T12:10:32;98463.13;;;40.10;28.53
10587;BME280;5341;47.606;7.576;2023-08-24T12:13:04;98470.91;;;40.31;27.64
10587;BME280;5341;47.606;7.576;2023-08-24T12:15:34;98460.25;;;40.44;27.46
10587;BME280;5341;47.606;7.576;2023-08-24T12:18:09;98451.88;;;40.47;28.48
10587;BME280;5341;47.606;7.576;2023-08-24T12:20:37;98449.91;;;40.51;28.32
10587;BME280;5341;47.606;7.576;2023-08-24T12:23:06;98445.84;;;40.45;28.84
10587;BME280;5341;47.606;7.576;2023-08-24T12:25:36;98450.25;;;40.46;28.62
10587;BME280;5341;47.606;7.576;2023-08-24T12:28:13;98433.97;;;40.62;28.06
10587;BME280;5341;47.606;7.576;2023-08-24T12:30:48;98436.84;;;40.80;26.15
10587;BME280;5341;47.606;7.576;2023-08-24T12:33:27;98434.13;;;40.87;26.39
10587;BME280;5341;47.606;7.576;2023-08-24T12:35:55;98430.81;;;40.75;27.79
10587;BME280;5341;47.606;7.576;2023-08-24T12:38:24;98418.34;;;40.65;27.88
10587;BME280;5341;47.606;7.576;2023-08-24T12:40:52;98413.06;;;40.56;28.20
10587;BME280;5341;47.606;7.576;2023-08-24T12:43:21;98402.22;;;40.48;27.93
10587;BME280;5341;47.606;7.576;2023-08-24T12:45:48;98390.22;;;40.51;27.79
10587;BME280;5341;47.606;7.576;2023-08-24T12:48:16;98386.69;;;40.64;27.68
10587;BME280;5341;47.606;7.576;2023-08-24T12:50:43;98380.38;;;40.82;26.27
10587;BME280;5341;47.606;7.576;2023-08-24T12:53:11;98377.25;;;40.94;27.71
10587;BME280;5341;47.606;7.576;2023-08-24T12:55:39;98376.84;;;40.88;27.90
10587;BME280;5341;47.606;7.576;2023-08-24T12:58:07;98378.34;;;40.79;27.87
10587;BME280;5341;47.606;7.576;2023-08-24T13:00:36;98368.88;;;40.97;26.01
10587;BME280;5341;47.606;7.576;2023-08-24T13:03:04;98364.13;;;41.12;26.53
10587;BME280;5341;47.606;7.576;2023-08-24T13:05:31;98362.94;;;41.24;26.23
10587;BME280;5341;47.606;7.576;2023-08-24T13:07:58;98358.59;;;41.41;25.28
10587;BME280;5341;47.606;7.576;2023-08-24T13:10:26;98361.06;;;41.56;24.71
10587;BME280;5341;47.606;7.576;2023-08-24T13:12:53;98356.69;;;41.77;24.23
10587;BME280;5341;47.606;7.576;2023-08-24T13:15:22;98351.06;;;41.88;25.40
10587;BME280;5341;47.606;7.576;2023-08-24T13:17:51;98339.44;;;41.85;25.44
10587;BME280;5341;47.606;7.576;2023-08-24T13:20:19;98324.97;;;41.91;25.30